sensor_id;sensor_type;location;lat;lon;timestamp;temperature;humidity
19017;DHT22;9641;51.494;6.670;2023-04-08T00:01:05;8.30;99.90
19017;DHT22;9641;51.494;6.670;2023-04-08T00:03:32;8.30;99.90
19017;DHT22;9641;51.494;6.670;2023-04-08T00:05:59;8.30;99.90
19017;DHT22;9641;51.494;6.670;2023-04-08T00:08:28;8.30;99.90
19017;DHT22;9641;51.494;6.670;2023-04-08T00:10:55;8.30;99.90
19017;DHT22;9641;51.494;6.670;2023-04-08T00:13:22;8.30;99.90
19017;DHT22;9641;51.494;6.670;2023-04-08T00:15:50;8.30;99.90
19017;DHT22;9641;51.494;6.670;2023-04-08T00:18:17;8.30;99.90
19017;DHT22;9641;51.494;6.670;2023-04-08T00:20:44;8.30;99.90
19017;DHT22;9641;51.494;6.670;2023-04-08T00:23:11;8.30;99.90
19017;DHT22;9641;51.494;6.670;2023-04-08T00:25:38;8.30;99.90
19017;DHT22;9641;51.494;6.670;2023-04-08T00:28:05;8.30;99.90
19017;DHT22;9641;51.494;6.670;2023-04-08T00:30:32;8.30;99.90
19017;DHT22;9641;51.494;6.670;2023-04-08T00:33:03;8.30;99.90
19017;DHT22;9641;51.494;6.670;2023-04-08T00:35:29;8.30;99.90
19017;DHT22;9641;51.494;6.670;2023-04-08T00:37:56;8.20;99.90
19017;DHT22;9641;51.494;6.670;2023-04-08T00:40:23;8.20;99.90
19017;DHT22;9641;51.494;6.670;2023-04-08T00:42:50;8.20;99.90
19017;DHT22;9641;51.494;6.670;2023-04-08T00:45:17;8.20;99.90
19017;DHT22;9641;51.494;6.670;2023-04-08T00:47:44;8.20;99.90
19017;DHT22;9641;51.494;6.670;2023-04-08T00:50:12;8.20;99.90
19017;DHT22;9641;51.494;6.670;2023-04-08T00:52:41;8.10;99.90
19017;DHT22;9641;51.494;6.670;2023-04-08T00:55:08;8.10;99.90
19017;DHT22;9641;51.494;6.670;2023-04-08T00:57:35;8.10;99.90
19017;DHT22;9641;51.494;6.670;2023-04-08T01:00:03;8.10;99.90
19017;DHT22;9641;51.494;6.670;2023-04-08T01:02:46;8.10;99.90
19017;DHT22;9641;51.494;6.670;2023-04-08T01:05:24;8.10;99.90
19017;DHT22;9641;51.494;6.670;2023-04-08T01:07:54;8.10;99.90
19017;DHT22;9641;51.494;6.670;2023-04-08T01:10:22;8.10;99.90
19017;DHT22;9641;51.494;6.670;2023-04-08T01:12:52;8.00;99.90
19017;DHT22;9641;51.494;6.670;2023-04-08T01:15:21;8.10;99.90
19017;DHT22;9641;51.494;6.670;2023-04-08T01:17:50;8.00;99.90
19017;DHT22;9641;51.494;6.670;2023-04-08T01:20:21;8.10;99.90
19017;DHT22;9641;51.494;6.670;2023-04-08T01:23:24;8.10;99.90
19017;DHT22;9641;51.494;6.670;2023-04-08T01:25:56;8.00;99.90
19017;DHT22;9641;51.494;6.670;2023-04-08T01:28:28;7.90;99.90
19017;DHT22;9641;51.494;6.670;2023-04-08T01:30:58;7.90;99.90
19017;DHT22;9641;51.494;6.670;2023-04-08T01:33:27;7.90;99.90
19017;DHT22;9641;51.494;6.670;2023-04-08T01:35:55;7.90;99.90
19017;DHT22;9641;51.494;6.670;2023-04-08T01:38:24;7.80;99.90
19017;DHT22;9641;51.494;6.670;2023-04-08T01:40:52;7.80;99.90
19017;DHT22;9641;51.494;6.670;2023-04-08T01:43:23;7.80;99.90
19017;DHT22;9641;51.494;6.670;2023-04-08T01:45:51;7.80;99.90
19017;DHT22;9641;51.494;6.670;2023-04-08T01:48:23;7.70;99.90
19017;DHT22;9641;51.494;6.670;2023-04-08T01:50:51;7.70;99.90
19017;DHT22;9641;51.494;6.670;2023-04-08T01:53:18;7.60;99.90
19017;DHT22;9641;51.494;6.670;2023-04-08T01:55:46;7.60;99.90
19017;DHT22;9641;51.494;6.670;2023-04-08T01:58:18;7.60;99.90
19017;DHT22;9641;51.494;6.670;2023-04-08T02:00:48;7.60;99.90
19017;DHT22;9641;51.494;6.670;2023-04-08T02:03:18;7.50;99.90
19017;DHT22;9641;51.494;6.670;2023-04-08T02:05:47;7.60;99.90
19017;DHT22;9641;51.494;6.670;2023-04-08T02:08:14;7.60;99.90
19017;DHT22;9641;51.494;6.670;2023-04-08T02:10:41;7.60;99.90
19017;DHT22;9641;51.494;6.670;2023-04-08T02:13:08;7.50;99.90
19017;DHT22;9641;51.494;6.670;2023-04-08T02:15:37;7.50;99.90
19017;DHT22;9641;51.494;6.670;2023-04-08T02:18:12;7.50;99.90
19017;DHT22;9641;51.494;6.670;2023-04-08T02:20:52;7.50;99.90
19017;DHT22;9641;51.494;6.670;2023-04-08T02:23:25;7.50;99.90
19017;DHT22;9641;51.494;6.670;2023-04-08T02:25:55;7.40;99.90
19017;DHT22;9641;51.494;6.670;2023-04-08T02:28:26;7.40;99.90
19017;DHT22;9641;51.494;6.670;2023-04-08T02:30:54;7.30;99.90
19017;DHT22;9641;51.494;6.670;2023-04-08T02:33:25;7.30;99.90
19017;DHT22;9641;51.494;6.670;2023-04-08T02:35:55;7.30;99.90
19017;DHT22;9641;51.494;6.670;2023-04-08T02:38:23;7.20;99.90
19017;DHT22;9641;51.494;6.670;2023-04-08T02:40:54;7.20;99.90
19017;DHT22;9641;51.494;6.670;2023-04-08T02:43:21;7.20;99.90
19017;DHT22;9641;51.494;6.670;2023-04-08T02:45:51;7.20;99.90
19017;DHT22;9641;51.494;6.670;2023-04-08T02:48:18;7.20;99.90
19017;DHT22;9641;51.494;6.670;2023-04-08T02:50:47;7.40;99.90
19017;DHT22;9641;51.494;6.670;2023-04-08T02:53:14;7.40;99.90
19017;DHT22;9641;51.494;6.670;2023-04-08T02:55:41;7.30;99.90
19017;DHT22;9641;51.494;6.670;2023-04-08T02:58:08;7.20;99.90
19017;DHT22;9641;51.494;6.670;2023-04-08T03:00:35;7.10;99.90
19017;DHT22;9641;51.494;6.670;2023-04-08T03:03:04;7.00;99.90
19017;DHT22;9641;51.494;6.670;2023-04-08T03:05:32;7.00;99.90
19017;DHT22;9641;51.494;6.670;2023-04-08T03:08:00;7.00;99.90
19017;DHT22;9641;51.494;6.670;2023-04-08T03:10:27;6.90;99.90
19017;DHT22;9641;51.494;6.670;2023-04-08T03:12:54;6.90;99.90
19017;DHT22;9641;51.494;6.670;2023-04-08T03:15:21;7.00;99.90
19017;DHT22;9641;51.494;6.670;2023-04-08T03:17:47;7.00;99.90
19017;DHT22;9641;51.494;6.670;2023-04-08T03:20:14;6.90;99.90
19017;DHT22;9641;51.494;6.670;2023-04-08T03:22:41;6.80;99.90
19017;DHT22;9641;51.494;6.670;2023-04-08T03:25:09;6.80;99.90
19017;DHT22;9641;51.494;6.670;2023-04-08T03:27:36;6.70;99.90
19017;DHT22;9641;51.494;6.670;2023-04-08T03:30:04;6.70;99.90
19017;DHT22;9641;51.494;6.670;2023-04-08T03:32:32;6.90;99.90
19017;DHT22;9641;51.494;6.670;2023-04-08T03:34:58;6.70;99.90
19017;DHT22;9641;51.494;6.670;2023-04-08T03:37:25;6.60;99.90
19017;DHT22;9641;51.494;6.670;2023-04-08T03:39:53;6.40;99.90
19017;DHT22;9641;51.494;6.670;2023-04-08T03:42:22;6.30;99.90
19017;DHT22;9641;51.494;6.670;2023-04-08T03:44:49;6.30;99.90
19017;DHT22;9641;51.494;6.670;2023-04-08T03:47:18;6.50;99.90
19017;DHT22;9641;51.494;6.670;2023-04-08T03:49:45;6.50;99.90
19017;DHT22;9641;51.494;6.670;2023-04-08T03:52:12;6.40;99.90
19017;DHT22;9641;51.494;6.670;2023-04-08T03:54:39;6.40;99.90
19017;DHT22;9641;51.494;6.670;2023-04-08T03:57:05;6.40;99.90
19017;DHT22;9641;51.494;6.670;2023-04-08T03:59:33;6.40;99.90
19017;DHT22;9641;51.494;6.670;2023-04-08T04:02:01;6.40;99.90
19017;DHT22;9641;51.494;6.670;2023-04-08T04:04:27;6.40;99.90
19017;DHT22;9641;51.494;6.670;2023-04-08T04:06:54;6.40;99.90
19017;DHT22;9641;51.494;6.670;2023-04-08T04:09:21;6.40;99.90
19017;DHT22;9641;51.494;6.670;2023-04-08T04:11:48;6.40;99.90
19017;DHT22;9641;51.494;6.670;2023-04-08T04:14:15;6.40;99.90
19017;DHT22;9641;51.494;6.670;2023-04-08T04:16:43;6.40;99.90
19017;DHT22;9641;51.494;6.670;2023-04-08T04:19:10;6.50;99.90
19017;DHT22;9641;51.494;6.670;2023-04-08T04:21:37;6.40;99.90
19017;DHT22;9641;51.494;6.670;2023-04-08T04:24:04;6.40;99.90
19017;DHT22;9641;51.494;6.670;2023-04-08T04:26:31;6.30;99.90
19017;DHT22;9641;51.494;6.670;2023-04-08T04:28:58;6.30;99.90
19017;DHT22;9641;51.494;6.670;2023-04-08T04:31:25;6.20;99.90
19017;DHT22;9641;51.494;6.670;2023-04-08T04:33:53;6.20;99.90
19017;DHT22;9641;51.494;6.670;2023-04-08T04:36:20;6.20;99.90
19017;DHT22;9641;51.494;6.670;2023-04-08T04:38:48;6.20;99.90
19017;DHT22;9641;51.494;6.670;2023-04-08T04:41:15;6.30;99.90
19017;DHT22;9641;51.494;6.670;2023-04-08T04:43:42;6.30;99.90
19017;DHT22;9641;51.494;6.670;2023-04-08T04:46:09;6.30;99.90
19017;DHT22;9641;51.494;6.670;2023-04-08T04:48:36;6.30;99.90
19017;DHT22;9641;51.494;6.670;2023-04-08T04:51:04;6.20;99.90
19017;DHT22;9641;51.494;6.670;2023-04-08T04:53:32;6.20;99.90
19017;DHT22;9641;51.494;6.670;2023-04-08T04:55:58;6.10;99.90
19017;DHT22;9641;51.494;6.670;2023-04-08T04:58:26;6.10;99.90
19017;DHT22;9641;51.494;6.670;2023-04-08T05:00:53;6.00;99.90
19017;DHT22;9641;51.494;6.670;2023-04-08T05:03:20;6.00;99.90
19017;DHT22;9641;51.494;6.670;2023-04-08T05:05:50;5.90;99.90
19017;DHT22;9641;51.494;6.670;2023-04-08T05:08:19;5.90;99.90
19017;DHT22;9641;51.494;6.670;2023-04-08T05:10:46;5.90;99.90
19017;DHT22;9641;51.494;6.670;2023-04-08T05:13:14;6.00;99.90
19017;DHT22;9641;51.494;6.670;2023-04-08T05:15:41;5.90;99.90
19017;DHT22;9641;51.494;6.670;2023-04-08T05:18:10;5.90;99.90
19017;DHT22;9641;51.494;6.670;2023-04-08T05:20:36;5.90;99.90
19017;DHT22;9641;51.494;6.670;2023-04-08T05:23:03;6.00;99.90
19017;DHT22;9641;51.494;6.670;2023-04-08T05:25:32;6.00;99.90
19017;DHT22;9641;51.494;6.670;2023-04-08T05:27:58;6.00;99.90
19017;DHT22;9641;51.494;6.670;2023-04-08T05:30:25;6.00;99.90
19017;DHT22;9641;51.494;6.670;2023-04-08T05:32:53;5.90;99.90
19017;DHT22;9641;51.494;6.670;2023-04-08T05:35:20;6.00;99.90
19017;DHT22;9641;51.494;6.670;2023-04-08T05:37:47;6.10;99.90
19017;DHT22;9641;51.494;6.670;2023-04-08T05:40:13;6.10;99.90
19017;DHT22;9641;51.494;6.670;2023-04-08T05:42:42;6.10;99.90
19017;DHT22;9641;51.494;6.670;2023-04-08T05:45:09;6.00;99.90
19017;DHT22;9641;51.494;6.670;2023-04-08T05:47:36;6.00;99.90
19017;DHT22;9641;51.494;6.670;2023-04-08T05:50:04;6.00;99.90
19017;DHT22;9641;51.494;6.670;2023-04-08T05:52:31;6.00;99.90
19017;DHT22;9641;51.494;6.670;2023-04-08T05:54:58;6.10;99.90
19017;DHT22;9641;51.494;6.670;2023-04-08T05:57:25;6.00;99.90
19017;DHT22;9641;51.494;6.670;2023-04-08T05:59:53;6.20;99.90
19017;DHT22;9641;51.494;6.670;2023-04-08T06:02:20;6.30;99.90
19017;DHT22;9641;51.494;6.670;2023-04-08T06:04:47;6.30;99.90
19017;DHT22;9641;51.494;6.670;2023-04-08T06:07:13;6.30;99.90
19017;DHT22;9641;51.494;6.670;2023-04-08T06:09:40;6.30;99.90
19017;DHT22;9641;51.494;6.670;2023-04-08T06:12:07;6.30;99.90
19017;DHT22;9641;51.494;6.670;2023-04-08T06:14:34;6.50;99.90
19017;DHT22;9641;51.494;6.670;2023-04-08T06:17:03;6.40;99.90
19017;DHT22;9641;51.494;6.670;2023-04-08T06:19:30;6.50;99.90
19017;DHT22;9641;51.494;6.670;2023-04-08T06:21:57;6.40;99.90
19017;DHT22;9641;51.494;6.670;2023-04-08T06:24:24;6.40;99.90
19017;DHT22;9641;51.494;6.670;2023-04-08T06:26:52;6.30;99.90
19017;DHT22;9641;51.494;6.670;2023-04-08T06:29:19;6.20;99.90
19017;DHT22;9641;51.494;6.670;2023-04-08T06:31:46;6.20;99.90
19017;DHT22;9641;51.494;6.670;2023-04-08T06:34:14;6.20;99.90
19017;DHT22;9641;51.494;6.670;2023-04-08T06:36:42;6.30;99.90
19017;DHT22;9641;51.494;6.670;2023-04-08T06:39:09;6.30;99.90
19017;DHT22;9641;51.494;6.670;2023-04-08T06:41:36;6.40;99.90
19017;DHT22;9641;51.494;6.670;2023-04-08T06:44:16;6.60;99.90
19017;DHT22;9641;51.494;6.670;2023-04-08T06:46:43;6.60;99.90
19017;DHT22;9641;51.494;6.670;2023-04-08T06:49:11;6.70;99.90
19017;DHT22;9641;51.494;6.670;2023-04-08T06:51:39;6.70;99.90
19017;DHT22;9641;51.494;6.670;2023-04-08T06:54:06;6.50;99.90
19017;DHT22;9641;51.494;6.670;2023-04-08T06:56:34;6.20;99.90
19017;DHT22;9641;51.494;6.670;2023-04-08T06:59:02;6.10;99.90
19017;DHT22;9641;51.494;6.670;2023-04-08T07:01:30;6.10;99.90
19017;DHT22;9641;51.494;6.670;2023-04-08T07:03:57;6.10;99.90
19017;DHT22;9641;51.494;6.670;2023-04-08T07:06:24;6.20;99.90
19017;DHT22;9641;51.494;6.670;2023-04-08T07:08:52;6.20;99.90
19017;DHT22;9641;51.494;6.670;2023-04-08T07:11:19;6.20;99.90
19017;DHT22;9641;51.494;6.670;2023-04-08T07:13:46;6.20;99.90
19017;DHT22;9641;51.494;6.670;2023-04-08T07:16:13;6.10;99.90
19017;DHT22;9641;51.494;6.670;2023-04-08T07:18:40;6.20;99.90
19017;DHT22;9641;51.494;6.670;2023-04-08T07:21:08;6.20;99.90
19017;DHT22;9641;51.494;6.670;2023-04-08T07:23:35;6.20;99.90
19017;DHT22;9641;51.494;6.670;2023-04-08T07:26:03;6.20;99.90
19017;DHT22;9641;51.494;6.670;2023-04-08T07:28:30;6.20;99.90
19017;DHT22;9641;51.494;6.670;2023-04-08T07:31:08;6.30;99.90
19017;DHT22;9641;51.494;6.670;2023-04-08T07:33:35;6.30;99.90
19017;DHT22;9641;51.494;6.670;2023-04-08T07:36:02;6.30;99.90
19017;DHT22;9641;51.494;6.670;2023-04-08T07:38:29;6.30;99.90
19017;DHT22;9641;51.494;6.670;2023-04-08T07:40:56;6.30;99.90
19017;DHT22;9641;51.494;6.670;2023-04-08T07:43:24;6.20;99.90
19017;DHT22;9641;51.494;6.670;2023-04-08T07:45:51;6.30;99.90
19017;DHT22;9641;51.494;6.670;2023-04-08T07:48:18;6.40;99.90
19017;DHT22;9641;51.494;6.670;2023-04-08T07:50:45;6.50;99.90
19017;DHT22;9641;51.494;6.670;2023-04-08T07:53:11;6.60;99.90
19017;DHT22;9641;51.494;6.670;2023-04-08T07:55:39;6.60;99.90
19017;DHT22;9641;51.494;6.670;2023-04-08T07:58:07;6.70;99.90
19017;DHT22;9641;51.494;6.670;2023-04-08T08:00:35;6.80;99.90
19017;DHT22;9641;51.494;6.670;2023-04-08T08:03:02;6.70;99.90
19017;DHT22;9641;51.494;6.670;2023-04-08T08:05:29;6.60;99.90
19017;DHT22;9641;51.494;6.670;2023-04-08T08:07:56;6.80;99.90
19017;DHT22;9641;51.494;6.670;2023-04-08T08:10:23;6.90;99.90
19017;DHT22;9641;51.494;6.670;2023-04-08T08:12:52;7.00;99.90
19017;DHT22;9641;51.494;6.670;2023-04-08T08:15:18;7.10;99.90
19017;DHT22;9641;51.494;6.670;2023-04-08T08:17:47;7.50;99.90
19017;DHT22;9641;51.494;6.670;2023-04-08T08:20:14;7.60;99.90
19017;DHT22;9641;51.494;6.670;2023-04-08T08:22:41;7.60;99.90
19017;DHT22;9641;51.494;6.670;2023-04-08T08:25:10;7.70;99.90
19017;DHT22;9641;51.494;6.670;2023-04-08T08:27:36;8.10;99.90
19017;DHT22;9641;51.494;6.670;2023-04-08T08:30:06;8.30;99.90
19017;DHT22;9641;51.494;6.670;2023-04-08T08:32:33;8.00;99.90
19017;DHT22;9641;51.494;6.670;2023-04-08T08:35:02;7.50;99.90
19017;DHT22;9641;51.494;6.670;2023-04-08T08:37:29;7.50;99.90
19017;DHT22;9641;51.494;6.670;2023-04-08T08:39:56;7.60;99.90
19017;DHT22;9641;51.494;6.670;2023-04-08T08:42:24;7.90;99.90
19017;DHT22;9641;51.494;6.670;2023-04-08T08:44:51;8.10;99.90
19017;DHT22;9641;51.494;6.670;2023-04-08T08:47:18;8.10;99.90
19017;DHT22;9641;51.494;6.670;2023-04-08T08:49:46;8.20;99.90
19017;DHT22;9641;51.494;6.670;2023-04-08T08:52:16;8.50;99.90
19017;DHT22;9641;51.494;6.670;2023-04-08T08:54:43;8.60;99.90
19017;DHT22;9641;51.494;6.670;2023-04-08T08:57:17;8.70;99.90
19017;DHT22;9641;51.494;6.670;2023-04-08T08:59:45;9.00;99.90
19017;DHT22;9641;51.494;6.670;2023-04-08T09:02:23;9.10;99.90
19017;DHT22;9641;51.494;6.670;2023-04-08T09:05:00;9.30;99.90
19017;DHT22;9641;51.494;6.670;2023-04-08T09:07:30;9.30;99.90
19017;DHT22;9641;51.494;6.670;2023-04-08T09:09:58;9.50;99.90
19017;DHT22;9641;51.494;6.670;2023-04-08T09:12:26;9.70;99.90
19017;DHT22;9641;51.494;6.670;2023-04-08T09:15:03;9.80;99.90
19017;DHT22;9641;51.494;6.670;2023-04-08T09:17:31;9.90;99.90
19017;DHT22;9641;51.494;6.670;2023-04-08T09:20:09;9.70;96.20
19017;DHT22;9641;51.494;6.670;2023-04-08T09:22:58;9.50;99.50
19017;DHT22;9641;51.494;6.670;2023-04-08T09:25:27;9.50;99.90
19017;DHT22;9641;51.494;6.670;2023-04-08T09:27:56;9.80;99.90
19017;DHT22;9641;51.494;6.670;2023-04-08T09:30:25;10.00;99.90
19017;DHT22;9641;51.494;6.670;2023-04-08T09:32:54;10.30;1.00
19017;DHT22;9641;51.494;6.670;2023-04-08T09:35:23;10.50;10.30
19017;DHT22;9641;51.494;6.670;2023-04-08T09:37:50;10.50;1.00
19017;DHT22;9641;51.494;6.670;2023-04-08T09:40:19;10.30;1.00
19017;DHT22;9641;51.494;6.670;2023-04-08T09:42:47;10.10;46.20
19017;DHT22;9641;51.494;6.670;2023-04-08T09:45:16;10.30;1.00
19017;DHT22;9641;51.494;6.670;2023-04-08T09:47:51;10.50;1.00
19017;DHT22;9641;51.494;6.670;2023-04-08T09:50:27;10.80;1.00
19017;DHT22;9641;51.494;6.670;2023-04-08T09:53:00;11.20;1.00
19017;DHT22;9641;51.494;6.670;2023-04-08T09:55:29;11.00;1.00
19017;DHT22;9641;51.494;6.670;2023-04-08T09:58:02;10.60;1.00
19017;DHT22;9641;51.494;6.670;2023-04-08T10:00:32;10.50;1.00
19017;DHT22;9641;51.494;6.670;2023-04-08T10:03:05;10.30;99.90
19017;DHT22;9641;51.494;6.670;2023-04-08T10:05:36;10.10;1.00
19017;DHT22;9641;51.494;6.670;2023-04-08T10:08:04;10.40;1.00
19017;DHT22;9641;51.494;6.670;2023-04-08T10:10:33;10.40;99.90
19017;DHT22;9641;51.494;6.670;2023-04-08T10:13:01;10.50;1.00
19017;DHT22;9641;51.494;6.670;2023-04-08T10:15:29;10.50;1.00
19017;DHT22;9641;51.494;6.670;2023-04-08T10:18:31;10.70;1.00
19017;DHT22;9641;51.494;6.670;2023-04-08T10:21:02;10.90;1.00
19017;DHT22;9641;51.494;6.670;2023-04-08T10:26:38;11.80;1.00
19017;DHT22;9641;51.494;6.670;2023-04-08T10:29:31;12.20;1.00
19017;DHT22;9641;51.494;6.670;2023-04-08T10:31:58;12.40;1.00
19017;DHT22;9641;51.494;6.670;2023-04-08T10:34:26;12.10;1.00
19017;DHT22;9641;51.494;6.670;2023-04-08T10:36:54;11.90;1.00
19017;DHT22;9641;51.494;6.670;2023-04-08T10:39:24;11.70;39.40
19017;DHT22;9641;51.494;6.670;2023-04-08T10:41:53;11.60;99.90
19017;DHT22;9641;51.494;6.670;2023-04-08T10:44:22;11.60;93.30
19017;DHT22;9641;51.494;6.670;2023-04-08T10:46:50;11.70;1.00
19017;DHT22;9641;51.494;6.670;2023-04-08T10:49:18;11.60;1.00
19017;DHT22;9641;51.494;6.670;2023-04-08T10:51:46;11.70;99.90
19017;DHT22;9641;51.494;6.670;2023-04-08T10:54:14;12.00;27.30
19017;DHT22;9641;51.494;6.670;2023-04-08T10:56:46;12.10;1.00
19017;DHT22;9641;51.494;6.670;2023-04-08T10:59:16;12.20;1.00
19017;DHT22;9641;51.494;6.670;2023-04-08T11:01:45;11.70;99.90
19017;DHT22;9641;51.494;6.670;2023-04-08T11:04:16;11.60;1.00
19017;DHT22;9641;51.494;6.670;2023-04-08T11:06:45;11.20;1.00
19017;DHT22;9641;51.494;6.670;2023-04-08T11:09:13;11.00;1.00
19017;DHT22;9641;51.494;6.670;2023-04-08T11:11:41;11.00;1.00
19017;DHT22;9641;51.494;6.670;2023-04-08T11:14:08;10.90;1.00
19017;DHT22;9641;51.494;6.670;2023-04-08T11:16:38;10.90;1.00
19017;DHT22;9641;51.494;6.670;2023-04-08T11:19:06;10.90;1.00
19017;DHT22;9641;51.494;6.670;2023-04-08T11:21:34;10.80;99.90
19017;DHT22;9641;51.494;6.670;2023-04-08T11:24:06;10.80;1.00
19017;DHT22;9641;51.494;6.670;2023-04-08T11:26:35;10.80;1.00
19017;DHT22;9641;51.494;6.670;2023-04-08T11:29:03;10.90;1.00
19017;DHT22;9641;51.494;6.670;2023-04-08T11:31:31;10.90;99.90
19017;DHT22;9641;51.494;6.670;2023-04-08T11:34:00;11.20;99.90
19017;DHT22;9641;51.494;6.670;2023-04-08T11:36:28;11.00;99.90
19017;DHT22;9641;51.494;6.670;2023-04-08T11:38:55;10.90;1.00
19017;DHT22;9641;51.494;6.670;2023-04-08T11:41:22;11.10;1.00
19017;DHT22;9641;51.494;6.670;2023-04-08T11:43:53;11.20;84.60
19017;DHT22;9641;51.494;6.670;2023-04-08T11:46:20;11.30;1.00
19017;DHT22;9641;51.494;6.670;2023-04-08T11:49:00;11.20;1.00
19017;DHT22;9641;51.494;6.670;2023-04-08T11:51:28;11.20;1.00
19017;DHT22;9641;51.494;6.670;2023-04-08T11:53:55;11.30;99.90
19017;DHT22;9641;51.494;6.670;2023-04-08T11:56:23;11.30;94.10
19017;DHT22;9641;51.494;6.670;2023-04-08T11:58:50;11.50;99.90
19017;DHT22;9641;51.494;6.670;2023-04-08T12:01:18;11.50;99.90
19017;DHT22;9641;51.494;6.670;2023-04-08T12:03:54;11.70;1.00
19017;DHT22;9641;51.494;6.670;2023-04-08T12:06:22;11.60;99.90
19017;DHT22;9641;51.494;6.670;2023-04-08T12:08:52;11.50;99.90
19017;DHT22;9641;51.494;6.670;2023-04-08T12:11:19;11.40;99.90
19017;DHT22;9641;51.494;6.670;2023-04-08T12:13:46;11.40;70.50
19017;DHT22;9641;51.494;6.670;2023-04-08T12:16:14;11.80;41.80
19017;DHT22;9641;51.494;6.670;2023-04-08T12:18:41;12.20;1.00
19017;DHT22;9641;51.494;6.670;2023-04-08T12:21:08;12.10;1.00
19017;DHT22;9641;51.494;6.670;2023-04-08T12:23:36;12.10;1.00
19017;DHT22;9641;51.494;6.670;2023-04-08T12:26:03;12.00;1.00
19017;DHT22;9641;51.494;6.670;2023-04-08T12:28:31;12.20;1.00
19017;DHT22;9641;51.494;6.670;2023-04-08T12:30:59;12.50;1.00
19017;DHT22;9641;51.494;6.670;2023-04-08T12:33:26;12.60;99.90
19017;DHT22;9641;51.494;6.670;2023-04-08T12:35:53;12.80;99.90
19017;DHT22;9641;51.494;6.670;2023-04-08T12:38:20;13.50;99.90
19017;DHT22;9641;51.494;6.670;2023-04-08T12:40:48;13.50;99.90
19017;DHT22;9641;51.494;6.670;2023-04-08T12:43:15;13.30;99.90
19017;DHT22;9641;51.494;6.670;2023-04-08T12:45:42;13.40;99.90
19017;DHT22;9641;51.494;6.670;2023-04-08T12:48:09;13.30;99.90
19017;DHT22;9641;51.494;6.670;2023-04-08T12:50:36;13.30;99.90
19017;DHT22;9641;51.494;6.670;2023-04-08T12:53:02;13.60;99.90
19017;DHT22;9641;51.494;6.670;2023-04-08T12:55:29;13.80;99.90
19017;DHT22;9641;51.494;6.670;2023-04-08T12:57:57;14.60;51.00
19017;DHT22;9641;51.494;6.670;2023-04-08T13:00:24;14.80;85.20
19017;DHT22;9641;51.494;6.670;2023-04-08T13:02:51;14.50;1.00
19017;DHT22;9641;51.494;6.670;2023-04-08T13:05:18;14.30;1.00
19017;DHT22;9641;51.494;6.670;2023-04-08T13:07:45;14.30;1.00
19017;DHT22;9641;51.494;6.670;2023-04-08T13:10:12;14.30;1.00
19017;DHT22;9641;51.494;6.670;2023-04-08T13:12:39;14.20;1.00
19017;DHT22;9641;51.494;6.670;2023-04-08T13:15:09;14.00;1.00
19017;DHT22;9641;51.494;6.670;2023-04-08T13:17:36;13.70;1.00
19017;DHT22;9641;51.494;6.670;2023-04-08T13:20:03;13.60;1.00
19017;DHT22;9641;51.494;6.670;2023-04-08T13:22:30;13.60;1.00
19017;DHT22;9641;51.494;6.670;2023-04-08T13:24:58;13.60;1.00
19017;DHT22;9641;51.494;6.670;2023-04-08T13:27:26;13.30;8.90
19017;DHT22;9641;51.494;6.670;2023-04-08T13:29:52;13.10;45.90
19017;DHT22;9641;51.494;6.670;2023-04-08T13:32:21;13.00;99.90
19017;DHT22;9641;51.494;6.670;2023-04-08T13:34:48;13.10;99.90
19017;DHT22;9641;51.494;6.670;2023-04-08T13:37:15;13.30;99.90
19017;DHT22;9641;51.494;6.670;2023-04-08T13:39:42;13.60;99.90
19017;DHT22;9641;51.494;6.670;2023-04-08T13:42:09;13.60;99.90
19017;DHT22;9641;51.494;6.670;2023-04-08T13:44:36;13.10;99.90
19017;DHT22;9641;51.494;6.670;2023-04-08T13:47:02;13.00;1.00
19017;DHT22;9641;51.494;6.670;2023-04-08T13:49:32;12.80;99.90
19017;DHT22;9641;51.494;6.670;2023-04-08T13:51:59;12.50;99.90
19017;DHT22;9641;51.494;6.670;2023-04-08T13:54:26;12.50;1.00
19017;DHT22;9641;51.494;6.670;2023-04-08T13:56:52;12.30;99.90
19017;DHT22;9641;51.494;6.670;2023-04-08T13:59:20;12.30;99.90
19017;DHT22;9641;51.494;6.670;2023-04-08T14:01:47;12.30;99.90
19017;DHT22;9641;51.494;6.670;2023-04-08T14:04:18;12.40;61.60
19017;DHT22;9641;51.494;6.670;2023-04-08T14:06:46;12.60;99.90
19017;DHT22;9641;51.494;6.670;2023-04-08T14:09:15;12.90;1.00
19017;DHT22;9641;51.494;6.670;2023-04-08T14:11:42;13.00;99.90
19017;DHT22;9641;51.494;6.670;2023-04-08T14:14:09;13.10;1.00
19017;DHT22;9641;51.494;6.670;2023-04-08T14:16:35;13.00;1.00
19017;DHT22;9641;51.494;6.670;2023-04-08T14:19:03;13.20;1.00
19017;DHT22;9641;51.494;6.670;2023-04-08T14:21:30;13.10;1.00
19017;DHT22;9641;51.494;6.670;2023-04-08T14:23:59;13.20;1.00
19017;DHT22;9641;51.494;6.670;2023-04-08T14:26:25;13.20;76.30
19017;DHT22;9641;51.494;6.670;2023-04-08T14:28:52;13.20;99.90
19017;DHT22;9641;51.494;6.670;2023-04-08T14:31:19;13.30;99.90
19017;DHT22;9641;51.494;6.670;2023-04-08T14:33:46;13.20;99.90
19017;DHT22;9641;51.494;6.670;2023-04-08T14:36:13;13.30;99.90
19017;DHT22;9641;51.494;6.670;2023-04-08T14:38:41;13.20;1.00
19017;DHT22;9641;51.494;6.670;2023-04-08T14:41:09;12.90;1.00
19017;DHT22;9641;51.494;6.670;2023-04-08T14:43:36;12.70;99.90
19017;DHT22;9641;51.494;6.670;2023-04-08T14:46:03;12.60;1.00
19017;DHT22;9641;51.494;6.670;2023-04-08T14:48:30;12.60;1.00
19017;DHT22;9641;51.494;6.670;2023-04-08T14:50:57;12.70;99.90
19017;DHT22;9641;51.494;6.670;2023-04-08T14:53:25;12.80;1.00
19017;DHT22;9641;51.494;6.670;2023-04-08T14:55:52;12.80;99.90
19017;DHT22;9641;51.494;6.670;2023-04-08T14:58:20;12.80;99.90
19017;DHT22;9641;51.494;6.670;2023-04-08T15:00:47;12.70;1.00
19017;DHT22;9641;51.494;6.670;2023-04-08T15:03:14;12.60;1.00
19017;DHT22;9641;51.494;6.670;2023-04-08T15:05:54;12.50;1.00
19017;DHT22;9641;51.494;6.670;2023-04-08T15:08:21;12.50;1.00
19017;DHT22;9641;51.494;6.670;2023-04-08T15:10:48;12.40;99.90
19017;DHT22;9641;51.494;6.670;2023-04-08T15:13:15;12.30;1.00
19017;DHT22;9641;51.494;6.670;2023-04-08T15:15:43;12.30;1.00
19017;DHT22;9641;51.494;6.670;2023-04-08T15:18:10;12.10;99.90
19017;DHT22;9641;51.494;6.670;2023-04-08T15:20:37;12.00;1.00
19017;DHT22;9641;51.494;6.670;2023-04-08T15:23:03;11.90;99.90
19017;DHT22;9641;51.494;6.670;2023-04-08T15:25:30;11.80;99.90
19017;DHT22;9641;51.494;6.670;2023-04-08T15:27:57;11.80;99.90
19017;DHT22;9641;51.494;6.670;2023-04-08T15:30:24;11.70;99.90
19017;DHT22;9641;51.494;6.670;2023-04-08T15:32:53;11.60;99.90
19017;DHT22;9641;51.494;6.670;2023-04-08T15:35:20;11.50;1.00
19017;DHT22;9641;51.494;6.670;2023-04-08T15:37:47;11.60;1.00
19017;DHT22;9641;51.494;6.670;2023-04-08T15:40:14;11.60;1.00
19017;DHT22;9641;51.494;6.670;2023-04-08T15:42:41;11.60;1.00
19017;DHT22;9641;51.494;6.670;2023-04-08T15:45:08;11.60;99.90
19017;DHT22;9641;51.494;6.670;2023-04-08T15:47:36;11.70;99.90
19017;DHT22;9641;51.494;6.670;2023-04-08T15:50:05;11.70;99.90
19017;DHT22;9641;51.494;6.670;2023-04-08T15:52:32;11.70;99.90
19017;DHT22;9641;51.494;6.670;2023-04-08T15:54:59;11.70;99.90
19017;DHT22;9641;51.494;6.670;2023-04-08T15:57:28;11.60;1.00
19017;DHT22;9641;51.494;6.670;2023-04-08T15:59:56;11.60;1.00
19017;DHT22;9641;51.494;6.670;2023-04-08T16:02:23;11.60;1.00
19017;DHT22;9641;51.494;6.670;2023-04-08T16:04:50;11.60;1.00
19017;DHT22;9641;51.494;6.670;2023-04-08T16:07:18;11.60;1.00
19017;DHT22;9641;51.494;6.670;2023-04-08T16:09:45;11.50;1.00